createdAt,value
2022-08-02T00:00:57.465Z,101053.84
2022-08-02T00:03:24.799Z,101060.59
2022-08-02T00:05:53.701Z,101054.38
2022-08-02T00:08:22.482Z,101051.13
2022-08-02T00:10:49.965Z,101056.00
2022-08-02T00:13:17.008Z,101059.78
2022-08-02T00:15:44.208Z,101056.00
2022-08-02T00:18:11.298Z,101054.91
2022-08-02T00:20:38.442Z,101054.38
2022-08-02T00:23:05.553Z,101051.91
2022-08-02T00:25:32.533Z,101054.03
2022-08-02T00:27:59.527Z,101049.47
2022-08-02T00:30:26.568Z,101056.22
2022-08-02T00:32:53.656Z,101058.13
2022-08-02T00:35:20.936Z,101058.16
2022-08-02T00:37:48.117Z,101057.38
2022-08-02T00:40:15.463Z,101060.59
2022-08-02T00:42:44.243Z,101065.41
2022-08-02T00:45:11.479Z,101063.53
2022-08-02T00:47:38.588Z,101064.00
2022-08-02T00:50:06.487Z,101066.81
2022-08-02T00:52:33.660Z,101063.44
2022-08-02T00:55:00.731Z,101068.13
2022-08-02T00:57:27.766Z,101072.72
2022-08-02T00:59:54.726Z,101072.22
2022-08-02T01:02:21.787Z,101085.75
2022-08-02T01:04:48.864Z,101090.34
2022-08-02T01:07:16.005Z,101089.50
2022-08-02T01:09:45.082Z,101087.34
2022-08-02T01:12:13.187Z,101089.81
2022-08-02T01:14:50.942Z,101093.53
2022-08-02T01:17:58.826Z,101089.91
2022-08-02T01:20:58.126Z,101089.06
2022-08-02T01:23:43.132Z,101097.75
2022-08-02T01:26:37.467Z,101094.00
2022-08-02T01:29:17.075Z,101096.25
2022-08-02T01:32:02.059Z,101097.44
2022-08-02T01:34:46.254Z,101086.34
2022-08-02T01:37:32.393Z,101099.09
2022-08-02T01:40:09.648Z,101101.00
2022-08-02T01:42:40.612Z,101088.03
2022-08-02T01:45:10.335Z,101092.03
2022-08-02T01:47:40.753Z,101099.59
2022-08-02T01:50:12.096Z,101100.13
2022-08-02T01:52:53.544Z,101096.06
2022-08-02T01:55:35.068Z,101096.25
2022-08-02T01:58:23.235Z,101087.72
2022-08-02T02:00:51.408Z,101098.56
2022-08-02T02:03:24.717Z,101097.69
2022-08-02T02:05:57.794Z,101092.03
2022-08-02T02:08:32.484Z,101100.56
2022-08-02T02:12:06.024Z,101100.13
2022-08-02T02:13:50.800Z,101101.28
2022-08-02T02:16:22.065Z,101095.28
2022-08-02T02:18:49.996Z,101083.09
2022-08-02T02:21:17.270Z,101085.53
2022-08-02T02:23:44.444Z,101100.38
2022-08-02T02:26:16.822Z,101101.13
2022-08-02T02:28:58.449Z,101100.91
2022-08-02T02:31:27.184Z,101101.13
2022-08-02T02:34:03.061Z,101095.09
2022-08-02T02:36:33.342Z,101099.69
2022-08-02T02:39:11.602Z,101104.66
2022-08-02T02:41:43.492Z,101096.72
2022-08-02T02:44:18.479Z,101103.41
2022-08-02T02:46:46.832Z,101108.94
2022-08-02T02:49:16.284Z,101110.56
2022-08-02T02:51:44.455Z,101110.34
2022-08-02T02:54:30.589Z,101106.47
2022-08-02T02:57:02.830Z,101110.69
2022-08-02T02:59:30.382Z,101114.72
2022-08-02T03:01:58.880Z,101116.31
2022-08-02T03:04:55.957Z,101117.66
2022-08-02T03:07:16.767Z,101116.09
2022-08-02T03:09:44.093Z,101112.56
2022-08-02T03:12:11.812Z,101118.50
2022-08-02T03:14:45.547Z,101118.06
2022-08-02T03:17:16.769Z,101124.06
2022-08-02T03:19:45.513Z,101117.34
2022-08-02T03:22:15.711Z,101122.25
2022-08-02T03:24:42.791Z,101125.53
2022-08-02T03:27:09.820Z,101129.22
2022-08-02T03:29:36.911Z,101123.38
2022-08-02T03:32:04.558Z,101132.44
2022-08-02T03:34:31.861Z,101127.34
2022-08-02T03:36:59.728Z,101136.81
2022-08-02T03:39:27.955Z,101135.75
2022-08-02T03:41:55.974Z,101147.31
2022-08-02T03:44:24.263Z,101145.06
2022-08-02T03:46:53.031Z,101153.38
2022-08-02T03:49:21.961Z,101151.78
2022-08-02T03:51:49.405Z,101159.31
2022-08-02T03:54:18.796Z,101154.13
2022-08-02T03:56:46.516Z,101154.91
2022-08-02T03:59:15.218Z,101156.88
2022-08-02T04:01:42.795Z,101158.56
2022-08-02T04:04:10.434Z,101162.47
2022-08-02T04:06:40.162Z,101172.09
2022-08-02T04:09:09.649Z,101176.91
2022-08-02T04:11:37.977Z,101173.72
2022-08-02T04:14:11.100Z,101173.94
2022-08-02T04:17:08.606Z,101183.47
2022-08-02T04:19:50.937Z,101186.84
2022-08-02T04:22:27.470Z,101193.91
2022-08-02T04:28:15.571Z,101200.81
2022-08-02T04:30:21.378Z,101199.06
2022-08-02T04:32:48.429Z,101210.19
2022-08-02T04:35:20.159Z,101204.56
2022-08-02T04:38:08.521Z,101201.03
2022-08-02T04:40:36.367Z,101210.72
2022-08-02T04:43:03.614Z,101212.41
2022-08-02T04:45:31.618Z,101217.19
2022-08-02T04:48:06.521Z,101224.91
2022-08-02T04:50:34.755Z,101230.06
2022-08-02T04:53:01.943Z,101220.91
2022-08-02T04:55:30.058Z,101229.94
2022-08-02T04:57:58.948Z,101228.13
2022-08-02T05:00:29.849Z,101227.72
2022-08-02T05:02:58.032Z,101223.75
2022-08-02T05:05:26.126Z,101227.72
2022-08-02T05:07:53.283Z,101219.00
2022-08-02T05:10:20.998Z,101228.25
2022-08-02T05:12:48.234Z,101230.47
2022-08-02T05:15:18.316Z,101232.16
2022-08-02T05:17:48.541Z,101244.28
2022-08-02T05:20:19.642Z,101239.03
2022-08-02T05:22:47.289Z,101245.16
2022-08-02T05:25:15.205Z,101245.03
2022-08-02T05:27:42.662Z,101243.91
2022-08-02T05:30:10.400Z,101242.81
2022-08-02T05:32:47.307Z,101251.03
2022-08-02T05:35:17.304Z,101254.94
2022-08-02T05:37:44.274Z,101266.41
2022-08-02T05:40:16.591Z,101262.69
2022-08-02T05:42:44.259Z,101270.72
2022-08-02T05:45:11.988Z,101276.50
2022-08-02T05:47:39.670Z,101277.28
2022-08-02T05:50:08.392Z,101279.16
2022-08-02T05:53:02.608Z,101275.59
2022-08-02T05:55:38.208Z,101284.63
2022-08-02T05:58:31.351Z,101283.31
2022-08-02T06:01:02.857Z,101289.94
2022-08-02T06:03:43.515Z,101292.94
2022-08-02T06:06:17.754Z,101286.91
2022-08-02T06:08:49.391Z,101287.75
2022-08-02T06:11:22.188Z,101286.94
2022-08-02T06:13:49.676Z,101288.81
2022-08-02T06:16:18.057Z,101292.34
2022-08-02T06:19:01.242Z,101285.59
2022-08-02T06:22:32.851Z,101288.31
2022-08-02T06:24:19.951Z,101283.13
2022-08-02T06:26:52.943Z,101287.78
2022-08-02T06:29:23.332Z,101289.34
2022-08-02T06:31:53.491Z,101279.16
2022-08-02T06:34:20.826Z,101285.16
2022-08-02T06:37:07.547Z,101283.13
2022-08-02T06:39:47.860Z,101290.00
2022-08-02T06:42:33.817Z,101293.78
2022-08-02T06:45:00.908Z,101288.81
2022-08-02T06:47:28.682Z,101290.16
2022-08-02T06:49:58.556Z,101296.94
2022-08-02T06:52:29.729Z,101284.97
2022-08-02T06:55:02.662Z,101288.50
2022-08-02T06:57:31.092Z,101293.25
2022-08-02T07:00:02.673Z,101279.91
2022-08-02T07:02:31.527Z,101286.53
2022-08-02T07:04:59.127Z,101294.50
2022-08-02T07:07:28.027Z,101290.16
2022-08-02T07:10:00.922Z,101287.19
2022-08-02T07:12:34.384Z,101290.72
2022-08-02T07:15:06.046Z,101286.03
2022-08-02T07:17:34.215Z,101284.34
2022-08-02T07:20:01.818Z,101290.25
2022-08-02T07:22:29.575Z,101287.94
2022-08-02T07:24:58.911Z,101279.91
2022-08-02T07:27:27.175Z,101296.41
2022-08-02T07:29:55.556Z,101298.97
2022-08-02T07:32:26.409Z,101295.56
2022-08-02T07:34:55.977Z,101297.56
2022-08-02T07:37:53.027Z,101295.00
2022-08-02T07:40:19.895Z,101291.09
2022-08-02T07:42:56.393Z,101284.56
2022-08-02T07:45:26.520Z,101281.38
2022-08-02T07:47:53.745Z,101270.25
2022-08-02T07:50:21.807Z,101279.78
2022-08-02T07:52:50.050Z,101282.28
2022-08-02T07:55:24.705Z,101283.94
2022-08-02T07:58:07.062Z,101282.53
2022-08-02T08:00:38.381Z,101281.94
2022-08-02T08:03:06.365Z,101286.34
2022-08-02T08:05:34.001Z,101288.00
2022-08-02T08:08:01.028Z,101285.22
2022-08-02T08:10:28.526Z,101296.25
2022-08-02T08:12:56.855Z,101288.41
2022-08-02T08:15:23.867Z,101301.03
2022-08-02T08:17:50.903Z,101289.53
2022-08-02T08:20:18.658Z,101293.59
2022-08-02T08:22:46.425Z,101283.00
2022-08-02T08:25:13.431Z,101283.13
2022-08-02T08:27:52.344Z,101299.63
2022-08-02T08:30:22.036Z,101288.16
2022-08-02T08:32:49.579Z,101295.44
2022-08-02T08:35:16.664Z,101289.22
2022-08-02T08:37:44.064Z,101288.75
2022-08-02T08:40:12.593Z,101297.56
2022-08-02T08:42:40.473Z,101291.06
2022-08-02T08:45:09.196Z,101286.13
2022-08-02T08:47:42.350Z,101291.13
2022-08-02T08:50:18.887Z,101296.69
2022-08-02T08:53:08.380Z,101287.59
2022-08-02T08:55:36.641Z,101290.25
2022-08-02T08:58:05.368Z,101288.41
2022-08-02T09:00:36.357Z,101290.50
2022-08-02T09:03:07.176Z,101285.06
2022-08-02T09:05:43.518Z,101278.34
2022-08-02T09:08:16.337Z,101286.72
2022-08-02T09:10:47.363Z,101282.19
2022-08-02T09:13:45.130Z,101289.28
2022-08-02T09:16:14.773Z,101288.38
2022-08-02T09:18:47.117Z,101293.00
2022-08-02T09:21:17.183Z,101290.59
2022-08-02T09:23:52.612Z,101287.13
2022-08-02T09:26:24.603Z,101288.84
2022-08-02T09:29:19.455Z,101290.41
2022-08-02T09:32:06.960Z,101287.78
2022-08-02T09:34:52.445Z,101278.00
2022-08-02T09:37:37.566Z,101276.94
2022-08-02T09:40:06.949Z,101274.75
2022-08-02T09:42:34.850Z,101276.41
2022-08-02T09:45:03.220Z,101270.16
2022-08-02T09:47:31.355Z,101261.34
2022-08-02T09:49:59.129Z,101268.16
2022-08-02T09:52:43.026Z,101269.22
2022-08-02T09:55:12.801Z,101268.50
2022-08-02T09:57:40.186Z,101268.66
2022-08-02T10:00:20.404Z,101268.28
2022-08-02T10:03:21.490Z,101266.53
2022-08-02T10:06:02.560Z,101261.19
2022-08-02T10:08:33.846Z,101264.16
2022-08-02T10:11:04.010Z,101263.75
2022-08-02T10:13:36.728Z,101262.22
2022-08-02T10:16:06.304Z,101252.84
2022-08-02T10:18:39.320Z,101245.75
2022-08-02T10:21:15.316Z,101245.88
2022-08-02T10:23:45.152Z,101239.09
2022-08-02T10:26:18.576Z,101246.34
2022-08-02T10:28:49.665Z,101240.31
2022-08-02T10:31:23.491Z,101241.50
2022-08-02T10:33:53.033Z,101246.84
2022-08-02T10:36:23.708Z,101256.81
2022-08-02T10:38:51.188Z,101240.53
2022-08-02T10:41:43.003Z,101236.28
2022-08-02T10:44:29.268Z,101230.91
2022-08-02T10:47:27.735Z,101228.63
2022-08-02T10:50:00.467Z,101240.75
2022-08-02T10:52:33.567Z,101245.97
2022-08-02T10:55:13.503Z,101240.16
2022-08-02T10:57:41.906Z,101238.16
2022-08-02T11:00:24.869Z,101236.94
2022-08-02T11:02:53.860Z,101223.13
2022-08-02T11:05:42.797Z,101225.56
2022-08-02T11:08:37.294Z,101225.47
2022-08-02T11:11:53.811Z,101226.59
2022-08-02T11:14:14.899Z,101223.56
2022-08-02T11:17:02.807Z,101216.31
2022-08-02T11:19:30.024Z,101217.28
2022-08-02T11:22:13.775Z,101228.63
2022-08-02T11:24:43.189Z,101228.97
2022-08-02T11:27:19.145Z,101218.16
2022-08-02T11:29:49.734Z,101209.44
2022-08-02T11:32:22.317Z,101209.53
2022-08-02T11:34:58.946Z,101216.13
2022-08-02T11:37:36.449Z,101210.13
2022-08-02T11:40:19.743Z,101215.03
2022-08-02T11:42:50.833Z,101223.22
2022-08-02T11:45:21.509Z,101214.81
2022-08-02T11:47:52.243Z,101213.59
2022-08-02T11:50:30.112Z,101213.16
2022-08-02T11:52:58.469Z,101210.22
2022-08-02T11:55:30.916Z,101209.25
2022-08-02T11:58:05.428Z,101210.50
2022-08-02T12:00:34.319Z,101213.13
2022-08-02T12:03:02.018Z,101206.25
2022-08-02T12:06:04.963Z,101213.69
2022-08-02T12:08:19.195Z,101210.69
2022-08-02T12:10:50.947Z,101213.75
2022-08-02T12:13:18.019Z,101218.28
2022-08-02T12:15:47.090Z,101210.91
2022-08-02T12:18:41.170Z,101205.38
2022-08-02T12:21:26.510Z,101193.22
2022-08-02T12:24:00.116Z,101206.03
2022-08-02T12:26:30.064Z,101198.38
2022-08-02T12:29:01.587Z,101214.06
2022-08-02T12:31:57.530Z,101201.78
2022-08-02T12:34:31.586Z,101205.44
2022-08-02T12:37:03.741Z,101205.00
2022-08-02T12:39:35.168Z,101211.34
2022-08-02T12:42:02.705Z,101207.88
2022-08-02T12:44:29.878Z,101219.16
2022-08-02T12:47:04.158Z,101213.81
2022-08-02T12:49:32.451Z,101212.41
2022-08-02T12:52:02.255Z,101207.38
2022-08-02T12:54:41.446Z,101201.84
2022-08-02T12:57:13.748Z,101204.69
2022-08-02T12:59:44.511Z,101210.59
2022-08-02T13:02:13.518Z,101204.63
2022-08-02T13:04:50.407Z,101202.50
2022-08-02T13:07:18.878Z,101186.47
2022-08-02T13:09:47.635Z,101191.09
2022-08-02T13:12:15.048Z,101201.13
2022-08-02T13:14:42.905Z,101201.94
2022-08-02T13:17:11.457Z,101185.22
2022-08-02T13:19:38.896Z,101194.53
2022-08-02T13:22:11.501Z,101190.91
2022-08-02T13:24:55.868Z,101185.19
2022-08-02T13:27:26.638Z,101181.78
2022-08-02T13:29:56.581Z,101176.19
2022-08-02T13:32:25.267Z,101182.75
2022-08-02T13:34:52.402Z,101170.09
2022-08-02T13:37:19.744Z,101165.13
2022-08-02T13:40:05.509Z,101172.78
2022-08-02T13:42:34.682Z,101170.09
2022-08-02T13:45:12.045Z,101170.59
2022-08-02T13:48:04.089Z,101167.22
2022-08-02T13:50:30.281Z,101159.41
2022-08-02T13:52:57.365Z,101158.66
2022-08-02T13:55:24.404Z,101150.50
2022-08-02T13:57:53.638Z,101157.78
2022-08-02T14:00:35.513Z,101154.44
2022-08-02T14:03:05.848Z,101152.69
2022-08-02T14:05:44.721Z,101155.50
2022-08-02T14:08:19.695Z,101154.63
2022-08-02T14:10:49.108Z,101157.44
2022-08-02T14:13:17.093Z,101165.94
2022-08-02T14:15:44.957Z,101155.44
2022-08-02T14:18:12.729Z,101153.22
2022-08-02T14:20:39.797Z,101154.88
2022-08-02T14:23:07.008Z,101159.91
2022-08-02T14:25:33.991Z,101149.69
2022-08-02T14:28:01.018Z,101161.47
2022-08-02T14:30:28.444Z,101149.69
2022-08-02T14:32:56.616Z,101152.91
2022-08-02T14:35:23.742Z,101139.81
2022-08-02T14:37:50.839Z,101148.97
2022-08-02T14:40:28.156Z,101145.25
2022-08-02T14:43:02.596Z,101146.16
2022-08-02T14:45:36.624Z,101144.06
2022-08-02T14:48:07.741Z,101141.19
2022-08-02T14:50:35.715Z,101151.69
2022-08-02T14:53:02.757Z,101141.28
2022-08-02T14:55:29.854Z,101139.56
2022-08-02T14:57:56.937Z,101143.16
2022-08-02T15:00:23.942Z,101136.44
2022-08-02T15:02:51.119Z,101135.16
2022-08-02T15:05:18.118Z,101144.66
2022-08-02T15:07:49.370Z,101139.81
2022-08-02T15:10:16.722Z,101133.28
2022-08-02T15:12:46.088Z,101135.47
2022-08-02T15:15:13.292Z,101137.03
2022-08-02T15:17:40.472Z,101122.44
2022-08-02T15:20:25.195Z,101119.13
2022-08-02T15:22:53.247Z,101137.59
2022-08-02T15:25:21.481Z,101121.72
2022-08-02T15:27:48.713Z,101123.28
2022-08-02T15:30:15.881Z,101125.47
2022-08-02T15:32:53.346Z,101130.56
2022-08-02T15:35:21.457Z,101118.66
2022-08-02T15:37:48.439Z,101123.13
2022-08-02T15:40:15.516Z,101121.72
2022-08-02T15:42:43.820Z,101113.38
2022-08-02T15:45:15.653Z,101111.69
2022-08-02T15:47:48.118Z,101119.34
2022-08-02T15:50:18.633Z,101111.25
2022-08-02T15:52:45.789Z,101114.00
2022-08-02T15:55:13.619Z,101112.38
2022-08-02T15:57:41.952Z,101106.91
2022-08-02T16:00:18.134Z,101104.19
2022-08-02T16:02:47.837Z,101112.31
2022-08-02T16:05:18.073Z,101109.53
2022-08-02T16:07:46.486Z,101106.97
2022-08-02T16:10:15.074Z,101108.03
2022-08-02T16:12:42.205Z,101107.56
2022-08-02T16:15:09.673Z,101105.75
2022-08-02T16:17:53.796Z,101100.72
2022-08-02T16:20:23.266Z,101107.94
2022-08-02T16:22:50.359Z,101106.56
2022-08-02T16:25:17.683Z,101109.94
2022-08-02T16:27:57.560Z,101119.13
2022-08-02T16:30:32.307Z,101118.47
2022-08-02T16:32:59.370Z,101108.00
2022-08-02T16:35:28.125Z,101116.69
2022-08-02T16:37:55.131Z,101112.81
2022-08-02T16:40:22.489Z,101117.09
2022-08-02T16:42:50.537Z,101107.28
2022-08-02T16:45:22.594Z,101115.25
2022-08-02T16:47:55.102Z,101108.69
2022-08-02T16:50:27.140Z,101107.97
2022-08-02T16:52:58.353Z,101111.53
2022-08-02T16:55:26.319Z,101112.25
2022-08-02T16:57:58.578Z,101110.53
2022-08-02T17:00:26.209Z,101112.22
2022-08-02T17:02:54.760Z,101114.38
2022-08-02T17:05:29.829Z,101108.44
2022-08-02T17:08:07.954Z,101105.22
2022-08-02T17:10:43.841Z,101114.00
2022-08-02T17:16:17.059Z,101118.16
2022-08-02T17:18:47.104Z,101126.09
2022-08-02T17:21:18.247Z,101118.13
2022-08-02T17:24:02.834Z,101124.38
2022-08-02T17:26:32.644Z,101120.84
2022-08-02T17:29:16.503Z,101119.31
2022-08-02T17:32:05.259Z,101117.88
2022-08-02T17:34:34.219Z,101118.00
2022-08-02T17:37:01.366Z,101121.25
2022-08-02T17:39:33.543Z,101119.03
2022-08-02T17:42:02.775Z,101125.69
2022-08-02T17:44:37.465Z,101119.41
2022-08-02T17:47:11.846Z,101116.91
2022-08-02T17:49:43.939Z,101121.75
2022-08-02T17:52:48.207Z,101131.91
2022-08-02T17:54:58.882Z,101128.47
2022-08-02T17:57:56.280Z,101118.84
2022-08-02T18:00:13.991Z,101129.13
2022-08-02T18:02:41.919Z,101131.69
2022-08-02T18:05:13.261Z,101141.13
2022-08-02T18:07:53.036Z,101134.03
2022-08-02T18:10:23.783Z,101133.94
2022-08-02T18:12:53.419Z,101138.00
2022-08-02T18:15:23.285Z,101142.13
2022-08-02T18:17:51.260Z,101138.34
2022-08-02T18:20:34.772Z,101147.66
2022-08-02T18:23:02.570Z,101145.81
2022-08-02T18:25:37.342Z,101145.72
2022-08-02T18:28:11.398Z,101150.31
2022-08-02T18:30:39.119Z,101154.06
2022-08-02T18:33:58.786Z,101157.22
2022-08-02T18:35:55.354Z,101158.75
2022-08-02T18:38:28.377Z,101158.59
2022-08-02T18:40:55.813Z,101164.03
2022-08-02T18:43:25.037Z,101166.56
2022-08-02T18:46:05.902Z,101156.09
2022-08-02T18:48:35.311Z,101160.53
2022-08-02T18:51:03.243Z,101168.72
2022-08-02T18:53:41.748Z,101169.88
2022-08-02T18:56:20.418Z,101167.28
2022-08-02T18:58:55.568Z,101189.00
2022-08-02T19:01:34.033Z,101177.63
2022-08-02T19:04:04.624Z,101170.13
2022-08-02T19:06:32.764Z,101179.09
2022-08-02T19:11:48.228Z,101176.16
2022-08-02T19:14:27.641Z,101180.22
2022-08-02T19:16:57.878Z,101185.13
2022-08-02T19:22:26.805Z,101182.44
2022-08-02T19:25:01.009Z,101193.28
2022-08-02T19:27:32.508Z,101199.31
2022-08-02T19:30:07.598Z,101193.31
2022-08-02T19:32:42.754Z,101193.84
2022-08-02T19:35:30.467Z,101200.63
2022-08-02T19:38:08.772Z,101196.81
2022-08-02T19:40:36.726Z,101193.53
2022-08-02T19:44:25.691Z,101189.72
2022-08-02T19:45:57.141Z,101195.94
2022-08-02T19:48:27.241Z,101189.16
2022-08-02T19:51:00.978Z,101189.44
2022-08-02T19:53:48.223Z,101195.13
2022-08-02T19:56:25.523Z,101187.22
2022-08-02T19:58:54.758Z,101191.31
2022-08-02T20:01:36.920Z,101190.31
2022-08-02T20:04:07.491Z,101191.88
2022-08-02T20:06:42.819Z,101186.66
2022-08-02T20:09:21.405Z,101194.50
2022-08-02T20:12:05.898Z,101196.13
2022-08-02T20:14:33.048Z,101192.31
2022-08-02T20:17:00.974Z,101196.78
2022-08-02T20:22:15.984Z,101192.25
2022-08-02T20:24:43.519Z,101200.56
2022-08-02T20:27:17.030Z,101198.94
2022-08-02T20:29:51.039Z,101194.66
2022-08-02T20:32:24.353Z,101191.59
2022-08-02T20:34:52.841Z,101199.22
2022-08-02T20:38:00.257Z,101200.53
2022-08-02T20:40:08.615Z,101193.69
2022-08-02T20:42:35.690Z,101192.81
2022-08-02T20:45:04.861Z,101195.81
2022-08-02T20:50:38.150Z,101198.97
2022-08-02T20:53:06.865Z,101199.03
2022-08-02T20:55:35.784Z,101201.53
2022-08-02T20:58:04.548Z,101199.16
2022-08-02T21:00:35.018Z,101194.03
2022-08-02T21:03:04.537Z,101195.56
2022-08-02T21:05:43.540Z,101187.31
2022-08-02T21:08:21.358Z,101188.59
2022-08-02T21:10:51.769Z,101188.38
2022-08-02T21:13:25.898Z,101186.72
2022-08-02T21:15:55.130Z,101197.56
2022-08-02T21:18:30.126Z,101182.97
2022-08-02T21:21:06.591Z,101186.03
2022-08-02T21:23:36.908Z,101194.69
2022-08-02T21:26:06.706Z,101187.59
2022-08-02T21:31:22.991Z,101183.53
2022-08-02T21:36:38.418Z,101196.59
2022-08-02T21:39:14.123Z,101188.50
2022-08-02T21:44:31.632Z,101193.09
2022-08-02T21:46:58.874Z,101197.09
2022-08-02T21:50:09.812Z,101192.19
2022-08-02T21:52:25.990Z,101194.34
2022-08-02T21:54:56.819Z,101198.03
2022-08-02T21:57:26.990Z,101205.09
2022-08-02T22:00:11.330Z,101203.81
2022-08-02T22:02:41.546Z,101199.97
2022-08-02T22:05:15.891Z,101203.38
2022-08-02T22:07:45.820Z,101201.69
2022-08-02T22:10:16.029Z,101212.09
2022-08-02T22:12:53.580Z,101210.50
2022-08-02T22:15:25.874Z,101207.47
2022-08-02T22:18:06.694Z,101212.63
2022-08-02T22:21:01.871Z,101215.06
2022-08-02T22:23:50.267Z,101209.34
2022-08-02T22:26:18.978Z,101223.97
2022-08-02T22:28:51.032Z,101225.72
2022-08-02T22:31:40.342Z,101229.69
2022-08-02T22:34:26.734Z,101230.53
2022-08-02T22:36:55.463Z,101231.03
2022-08-02T22:39:22.568Z,101227.38
2022-08-02T22:42:05.365Z,101227.78
2022-08-02T22:44:35.659Z,101235.19
2022-08-02T22:47:07.237Z,101234.50
2022-08-02T22:49:51.863Z,101237.91
2022-08-02T22:52:23.268Z,101244.94
2022-08-02T22:54:51.127Z,101250.63
2022-08-02T22:57:29.919Z,101249.88
2022-08-02T22:58:47.003Z,101176.66
2022-08-02T22:58:49.679Z,101114.84
2022-08-02T22:58:55.200Z,101199.06
2022-08-02T22:58:56.233Z,101190.91
2022-08-02T22:58:57.369Z,101182.97
2022-08-02T22:59:02.908Z,101190.28
2022-08-02T22:59:03.343Z,101187.22
2022-08-02T22:59:12.330Z,101197.13
2022-08-02T22:59:57.290Z,101248.22
2022-08-02T23:02:25.085Z,101243.91
2022-08-02T23:04:52.721Z,101256.63
2022-08-02T23:07:19.795Z,101260.94
2022-08-02T23:09:46.899Z,101260.44
2022-08-02T23:12:19.064Z,101263.13
2022-08-02T23:14:51.219Z,101263.50
2022-08-02T23:17:38.412Z,101262.19
2022-08-02T23:20:07.303Z,101261.91
2022-08-02T23:22:34.392Z,101265.28
2022-08-02T23:25:03.580Z,101260.25
2022-08-02T23:27:32.170Z,101258.75
2022-08-02T23:30:00.928Z,101261.81
2022-08-02T23:32:28.491Z,101263.47
2022-08-02T23:34:57.410Z,101257.25
2022-08-02T23:37:24.943Z,101257.72
2022-08-02T23:39:52.409Z,101260.97
2022-08-02T23:42:37.984Z,101256.06
2022-08-02T23:45:05.396Z,101261.94
2022-08-02T23:47:32.381Z,101258.31
2022-08-02T23:49:59.350Z,101262.53
2022-08-02T23:52:26.387Z,101269.09
2022-08-02T23:54:53.375Z,101262.91
2022-08-02T23:57:21.657Z,101260.53
2022-08-02T23:59:52.180Z,101256.41
